Time;durP1;ratioP1;P1;durP2;ratioP2;P2;SDS_P1;SDS_P2;PMS_P1;PMS_P2;Temp;Humidity;BMP_temperature;BMP_pressure;BME280_temperature;BME280_humidity;BME280_pressure;Samples;Min_cycle;Max_cycle;Signal;HPM_P1;HPM_P2
2021/12/19 00:04:39;;;;;;;13.77;4.15;;;7.30;99.90;;;;;;5058860;28;20337;-47
2021/12/19 00:09:49;;;;;;;12.60;5.55;;;7.30;99.90;;;;;;5049516;28;20045;-47
2021/12/19 00:12:15;;;;;;;16.13;5.93;;;7.30;99.90;;;;;;5059775;28;20106;-46
2021/12/19 00:14:41;;;;;;;14.95;5.88;;;7.30;99.90;;;;;;5064607;28;20045;-48
2021/12/19 00:17:07;;;;;;;15.95;5.97;;;7.30;99.90;;;;;;5055716;28;20036;-47
2021/12/19 00:19:45;;;;;;;14.73;6.43;;;7.30;99.90;;;;;;5065999;28;20041;-48
2021/12/19 00:22:13;;;;;;;;;;;7.30;99.90;;;;;;5050915;28;20041;-48
2021/12/19 00:24:38;;;;;;;20.92;5.82;;;7.30;99.90;;;;;;5083788;28;19960;-46
2021/12/19 00:27:04;;;;;;;15.55;5.47;;;7.30;99.90;;;;;;5058435;28;20076;-48
2021/12/19 00:29:30;;;;;;;12.50;5.40;;;7.30;99.90;;;;;;5052911;28;20048;-47
2021/12/19 00:31:56;;;;;;;16.90;6.53;;;7.30;99.90;;;;;;5056379;28;20049;-47
2021/12/19 00:34:23;;;;;;;18.23;5.90;;;7.30;99.90;;;;;;5050666;28;20116;-48
2021/12/19 00:36:49;;;;;;;12.70;6.32;;;7.30;99.90;;;;;;5033789;28;20631;-47
2021/12/19 00:39:14;;;;;;;18.30;8.00;;;7.30;99.90;;;;;;5051300;28;20049;-47
2021/12/19 00:41:40;;;;;;;16.23;5.30;;;7.30;99.90;;;;;;5051253;28;20041;-46
2021/12/19 00:44:11;;;;;;;12.77;5.53;;;7.30;99.90;;;;;;5049857;28;20091;-47
2021/12/19 00:46:49;;;;;;;12.25;4.57;;;7.40;99.90;;;;;;5057787;28;20048;-45
2021/12/19 00:49:15;;;;;;;17.83;5.13;;;7.30;99.90;;;;;;5083874;28;20124;-47
2021/12/19 00:51:42;;;;;;;15.48;5.22;;;7.30;99.90;;;;;;5051501;28;20162;-49
2021/12/19 00:54:11;;;;;;;12.43;3.92;;;7.30;99.90;;;;;;5062230;28;20043;-46
2021/12/19 00:56:39;;;;;;;8.50;2.90;;;7.30;99.90;;;;;;5033846;28;20116;-47
2021/12/19 00:59:09;;;;;;;6.70;2.90;;;7.30;99.90;;;;;;5049675;28;20045;-46
2021/12/19 01:01:37;;;;;;;10.32;3.05;;;7.30;99.90;;;;;;5033049;28;20403;-46
2021/12/19 01:04:06;;;;;;;7.97;2.40;;;7.30;99.90;;;;;;5058963;28;20072;-48
2021/12/19 01:06:33;;;;;;;9.68;1.73;;;7.30;99.90;;;;;;5060919;28;20095;-48
2021/12/19 01:08:59;;;;;;;6.50;1.85;;;7.30;99.90;;;;;;5058938;28;20193;-49
2021/12/19 01:11:25;;;;;;;8.57;1.50;;;7.20;99.90;;;;;;5036174;28;20128;-47
2021/12/19 01:13:51;;;;;;;4.57;1.08;;;7.20;99.90;;;;;;5066346;28;20333;-48
2021/12/19 01:16:18;;;;;;;5.95;1.25;;;7.20;99.90;;;;;;5052356;28;20644;-47
2021/12/19 01:18:44;;;;;;;4.50;1.27;;;7.10;99.90;;;;;;5060881;28;20490;-48
2021/12/19 01:21:10;;;;;;;6.43;1.13;;;7.10;99.90;;;;;;5049416;28;20041;-50
2021/12/19 01:23:37;;;;;;;2.75;0.90;;;7.10;99.90;;;;;;5057078;28;20040;-47
2021/12/19 01:26:03;;;;;;;4.05;1.08;;;7.10;99.90;;;;;;5038858;28;20044;-48
2021/12/19 01:28:29;;;;;;;2.35;0.55;;;7.10;99.90;;;;;;5060189;28;20390;-46
2021/12/19 01:30:55;;;;;;;4.43;0.60;;;7.10;99.90;;;;;;5051515;28;20519;-46
2021/12/19 01:33:21;;;;;;;3.65;0.55;;;7.00;99.90;;;;;;5049178;28;20235;-47
2021/12/19 01:35:47;;;;;;;4.03;0.68;;;7.00;99.90;;;;;;5050698;28;20382;-46
2021/12/19 01:38:13;;;;;;;0.95;0.30;;;7.00;99.90;;;;;;5060749;28;20043;-46
2021/12/19 01:40:40;;;;;;;1.77;0.20;;;7.00;99.90;;;;;;5070428;28;20044;-47
2021/12/19 01:43:06;;;;;;;0.90;0.30;;;6.90;99.90;;;;;;5058596;28;20037;-46
2021/12/19 01:45:35;;;;;;;2.55;0.30;;;6.90;99.90;;;;;;5067362;28;20414;-46
2021/12/19 01:48:06;;;;;;;3.83;0.30;;;6.90;99.90;;;;;;5058276;28;20380;-46
2021/12/19 01:50:33;;;;;;;1.27;0.30;;;6.90;99.90;;;;;;5050609;28;20052;-49
2021/12/19 01:53:05;;;;;;;1.63;0.20;;;6.90;99.90;;;;;;5050758;28;20132;-47
2021/12/19 01:55:32;;;;;;;2.90;0.32;;;6.80;99.90;;;;;;5063702;28;20466;-48
2021/12/19 01:58:00;;;;;;;2.38;0.47;;;6.80;99.90;;;;;;5066027;28;20056;-48
2021/12/19 02:00:30;;;;;;;2.05;0.20;;;6.80;99.90;;;;;;5050199;28;20048;-47
2021/12/19 02:02:58;;;;;;;2.92;0.45;;;6.80;99.90;;;;;;5063249;28;20127;-47
2021/12/19 02:05:26;;;;;;;1.50;0.30;;;6.80;99.90;;;;;;5067304;28;20029;-48
2021/12/19 02:07:53;;;;;;;3.47;0.47;;;6.80;99.90;;;;;;5038215;28;20037;-48
2021/12/19 02:10:25;;;;;;;4.80;0.50;;;6.70;99.90;;;;;;5034955;28;20059;-47
2021/12/19 02:12:52;;;;;;;2.40;0.50;;;6.70;99.90;;;;;;5036527;28;20984;-47
2021/12/19 02:15:21;;;;;;;2.33;0.47;;;6.70;99.90;;;;;;5056784;28;20083;-47
2021/12/19 02:17:50;;;;;;;1.42;0.43;;;6.80;99.90;;;;;;5056174;28;20128;-47
2021/12/19 02:20:17;;;;;;;5.95;0.52;;;6.80;99.90;;;;;;5061214;28;20428;-47
2021/12/19 02:22:44;;;;;;;;;;;6.80;99.90;;;;;;5034878;28;20052;-47
2021/12/19 02:25:11;;;;;;;2.42;0.60;;;6.80;99.90;;;;;;5069835;28;19966;-49
2021/12/19 02:27:38;;;;;;;2.13;0.63;;;6.70;99.90;;;;;;5056445;28;20399;-48
2021/12/19 02:30:05;;;;;;;1.38;0.43;;;6.70;99.90;;;;;;5070076;28;20047;-48
2021/12/19 02:32:32;;;;;;;;;;;6.70;99.90;;;;;;5068891;28;20057;-48
2021/12/19 02:35:02;;;;;;;2.05;0.40;;;6.70;99.90;;;;;;5059179;28;19969;-46
2021/12/19 02:48:13;;;;;;;5.60;1.23;;;6.70;99.90;;;;;;5064557;28;20398;-50
2021/12/19 02:50:50;;;;;;;4.45;0.47;;;6.70;99.90;;;;;;5071946;28;20422;-46
2021/12/19 02:53:27;;;;;;;1.85;0.55;;;6.60;99.90;;;;;;5092958;28;20127;-46
2021/12/19 02:55:53;;;;;;;2.17;0.60;;;6.60;99.90;;;;;;5060092;28;20059;-46
2021/12/19 02:58:19;;;;;;;2.92;0.70;;;6.60;99.90;;;;;;5072136;28;20041;-47
2021/12/19 03:00:45;;;;;;;6.43;0.88;;;6.60;99.90;;;;;;5063732;28;20067;-47
2021/12/19 03:03:11;;;;;;;5.55;0.50;;;6.60;99.90;;;;;;5052801;28;20513;-48
2021/12/19 03:05:37;;;;;;;3.90;0.77;;;6.60;99.90;;;;;;5071968;28;20494;-47
2021/12/19 03:08:04;;;;;;;5.20;1.38;;;6.60;99.90;;;;;;5057877;28;20634;-46
2021/12/19 03:18:29;;;;;;;6.05;1.70;;;6.60;99.90;;;;;;5058129;28;20044;-50
2021/12/19 03:20:55;;;;;;;5.38;1.52;;;6.60;99.90;;;;;;5059356;28;20041;-48
2021/12/19 03:23:21;;;;;;;3.63;1.15;;;6.60;99.90;;;;;;5059053;28;20130;-48
2021/12/19 03:25:48;;;;;;;5.15;1.10;;;6.60;99.90;;;;;;5058699;28;20032;-47
2021/12/19 03:28:14;;;;;;;8.20;1.30;;;6.60;99.90;;;;;;5053274;28;20045;-47
2021/12/19 03:30:43;;;;;;;3.05;1.17;;;6.60;99.90;;;;;;5063202;28;20072;-46
2021/12/19 03:33:10;;;;;;;4.15;1.33;;;6.60;99.90;;;;;;5071699;28;20080;-47
2021/12/19 03:35:40;;;;;;;6.82;1.33;;;6.60;99.90;;;;;;5039934;28;20613;-47
2021/12/19 03:38:09;;;;;;;4.88;0.85;;;6.60;99.90;;;;;;5060329;28;20070;-47
2021/12/19 03:40:37;;;;;;;3.33;1.08;;;6.60;99.90;;;;;;5068472;28;20441;-48
2021/12/19 03:43:12;;;;;;;4.22;1.10;;;6.60;99.90;;;;;;5060631;28;20102;-47
2021/12/19 03:45:39;;;;;;;4.15;1.50;;;6.60;99.90;;;;;;5040849;28;20097;-47
2021/12/19 03:48:08;;;;;;;3.90;1.33;;;6.50;99.90;;;;;;5062010;28;20040;-48
2021/12/19 03:50:34;;;;;;;6.13;1.73;;;6.60;99.90;;;;;;5039100;28;20071;-49
2021/12/19 03:53:01;;;;;;;7.07;1.70;;;6.60;99.90;;;;;;5071226;28;20078;-48
2021/12/19 03:55:28;;;;;;;6.43;1.50;;;6.60;99.90;;;;;;5066618;28;20041;-46
2021/12/19 03:57:57;;;;;;;8.52;1.90;;;6.60;99.90;;;;;;5051356;28;20104;-47
2021/12/19 04:00:25;;;;;;;6.00;1.73;;;6.60;99.90;;;;;;5051162;28;20045;-47
2021/12/19 04:02:54;;;;;;;9.77;1.83;;;6.60;99.90;;;;;;5050482;28;20052;-48
2021/12/19 04:05:21;;;;;;;7.25;2.13;;;6.60;99.90;;;;;;5058634;28;20039;-47
2021/12/19 04:07:49;;;;;;;;;;;6.70;99.90;;;;;;5058062;28;20049;-46
2021/12/19 04:10:15;;;;;;;7.95;2.15;;;6.60;99.90;;;;;;5050705;28;19927;-47
2021/12/19 04:12:42;;;;;;;13.43;2.90;;;6.70;99.90;;;;;;5050734;28;20037;-48
2021/12/19 04:15:10;;;;;;;11.93;2.58;;;6.70;99.90;;;;;;5050685;28;20084;-46
2021/12/19 04:17:36;;;;;;;15.60;3.13;;;6.70;99.90;;;;;;5066371;28;20683;-48
2021/12/19 04:20:04;;;;;;;16.85;3.90;;;6.70;99.90;;;;;;5067403;28;20123;-47
2021/12/19 04:22:30;;;;;;;13.23;3.95;;;6.70;99.90;;;;;;5053193;28;20068;-47
2021/12/19 04:24:56;;;;;;;21.48;4.60;;;6.80;99.90;;;;;;5070651;28;20542;-47
2021/12/19 04:27:22;;;;;;;16.73;3.92;;;6.80;99.90;;;;;;5044817;28;20132;-49
2021/12/19 04:29:50;;;;;;;16.42;4.90;;;6.80;99.90;;;;;;5059105;28;20051;-48
2021/12/19 04:32:17;;;;;;;;;;;6.80;99.90;;;;;;5069876;28;20406;-48
2021/12/19 04:34:44;;;;;;;16.17;5.65;;;6.80;99.90;;;;;;5084143;28;20358;-47
2021/12/19 04:40:21;;;;;;;23.63;5.93;;;6.80;99.90;;;;;;5015719;28;20495;-49
2021/12/19 05:01:11;;;;;;;18.55;6.63;;;6.90;99.90;;;;;;5033798;28;20045;-47
2021/12/19 05:14:45;;;;;;;22.48;7.10;;;6.90;99.90;;;;;;5054526;28;20440;-49
2021/12/19 05:17:18;;;;;;;21.48;6.90;;;6.80;99.90;;;;;;5052628;28;20037;-47
2021/12/19 05:19:49;;;;;;;23.02;7.88;;;6.90;99.90;;;;;;5065308;28;20060;-47
2021/12/19 05:22:15;;;;;;;23.98;7.32;;;6.90;99.90;;;;;;5050990;28;20087;-46
2021/12/19 05:25:01;;;;;;;24.75;7.28;;;6.90;99.90;;;;;;5065831;28;20040;-47
2021/12/19 05:27:27;;;;;;;16.40;7.18;;;6.90;99.90;;;;;;5068297;28;20128;-48
2021/12/19 05:29:54;;;;;;;17.95;7.03;;;6.90;99.90;;;;;;5050997;28;20123;-47
2021/12/19 05:32:19;;;;;;;24.08;7.57;;;6.90;99.90;;;;;;5049424;28;20040;-47
2021/12/19 05:34:45;;;;;;;17.88;5.57;;;6.90;99.90;;;;;;5049880;28;20039;-50
2021/12/19 05:45:24;;;;;;;16.65;5.85;;;7.00;99.90;;;;;;5070458;28;20040;-47
2021/12/19 05:47:51;;;;;;;19.98;6.13;;;6.90;99.90;;;;;;5062440;28;20094;-47
2021/12/19 05:50:23;;;;;;;22.23;5.80;;;6.90;99.90;;;;;;5050637;28;20037;-51
2021/12/19 05:52:50;;;;;;;22.33;6.97;;;6.90;99.90;;;;;;5059731;28;20045;-51
2021/12/19 05:55:17;;;;;;;22.10;7.10;;;6.90;99.90;;;;;;5070215;28;20101;-49
2021/12/19 05:57:44;;;;;;;18.33;7.75;;;6.90;99.90;;;;;;5070600;28;20052;-47
2021/12/19 06:00:15;;;;;;;20.73;6.93;;;6.90;99.90;;;;;;5036733;28;20074;-47
2021/12/19 06:02:41;;;;;;;16.58;6.07;;;6.90;99.90;;;;;;5058262;28;20083;-47
2021/12/19 06:05:09;;;;;;;24.85;6.53;;;6.90;99.90;;;;;;5057310;28;20127;-46
2021/12/19 06:07:34;;;;;;;23.67;6.43;;;6.90;99.90;;;;;;5058600;28;20087;-46
2021/12/19 06:10:05;;;;;;;21.65;6.65;;;6.80;99.90;;;;;;5050318;28;20434;-46
2021/12/19 06:12:33;;;;;;;23.05;5.18;;;6.80;99.90;;;;;;5056504;28;20072;-47
2021/12/19 06:14:59;;;;;;;19.40;5.45;;;6.80;99.90;;;;;;5065051;28;20044;-47
2021/12/19 06:17:26;;;;;;;17.33;5.70;;;6.80;99.90;;;;;;5034394;28;20044;-47
2021/12/19 06:19:52;;;;;;;20.27;5.75;;;6.80;99.90;;;;;;5062300;28;20479;-46
2021/12/19 06:22:18;;;;;;;15.70;4.60;;;6.80;99.90;;;;;;5048286;28;20052;-47
2021/12/19 06:24:44;;;;;;;13.48;3.33;;;6.80;99.90;;;;;;5049804;28;20036;-48
2021/12/19 06:27:12;;;;;;;14.00;3.00;;;6.90;99.90;;;;;;5050159;28;20033;-49
2021/12/19 06:29:39;;;;;;;10.82;3.30;;;6.90;99.90;;;;;;5048176;28;20041;-48
2021/12/19 06:32:06;;;;;;;15.43;3.80;;;6.90;99.90;;;;;;5048262;28;20037;-47
2021/12/19 06:34:31;;;;;;;14.88;3.08;;;6.90;99.90;;;;;;5049214;28;20055;-47
2021/12/19 06:36:57;;;;;;;17.20;3.67;;;6.90;99.90;;;;;;5054421;28;20451;-49
2021/12/19 06:39:24;;;;;;;18.42;2.70;;;6.80;99.90;;;;;;5054062;28;20483;-48
2021/12/19 06:41:50;;;;;;;12.25;2.55;;;6.80;99.90;;;;;;5055959;28;20394;-47
2021/12/19 06:44:17;;;;;;;11.73;2.55;;;6.80;99.90;;;;;;5061303;28;20053;-47
2021/12/19 06:46:43;;;;;;;11.00;2.55;;;6.80;99.90;;;;;;5056802;28;20047;-47
2021/12/19 06:49:09;;;;;;;13.98;2.88;;;6.80;99.90;;;;;;5031734;28;20037;-49
2021/12/19 06:51:35;;;;;;;13.85;2.90;;;6.80;99.90;;;;;;5049696;28;20475;-47
2021/12/19 06:54:02;;;;;;;15.70;3.15;;;6.80;99.90;;;;;;5033445;28;20494;-47
2021/12/19 06:56:29;;;;;;;13.13;3.38;;;6.70;99.90;;;;;;5048309;28;20453;-46
2021/12/19 06:58:55;;;;;;;16.45;3.13;;;6.80;99.90;;;;;;5031859;28;20106;-48
2021/12/19 07:01:21;;;;;;;20.20;4.00;;;6.80;99.90;;;;;;5054736;28;20044;-47
2021/12/19 07:03:47;;;;;;;19.08;3.65;;;6.80;99.90;;;;;;5056102;28;20080;-48
2021/12/19 07:06:12;;;;;;;16.20;3.75;;;6.80;99.90;;;;;;5060705;28;20051;-48
2021/12/19 07:08:38;;;;;;;14.57;3.85;;;6.80;99.90;;;;;;5048443;28;20071;-47
2021/12/19 07:11:04;;;;;;;18.27;4.10;;;6.80;99.90;;;;;;5029386;28;20574;-48
2021/12/19 07:13:30;;;;;;;14.18;4.00;;;6.80;99.90;;;;;;5064613;28;20139;-48
2021/12/19 07:15:57;;;;;;;23.73;4.15;;;6.80;99.90;;;;;;5045371;28;20056;-47
2021/12/19 07:18:23;;;;;;;12.00;3.40;;;6.80;99.90;;;;;;5068094;28;20045;-47
2021/12/19 07:20:49;;;;;;;18.85;3.47;;;6.80;99.90;;;;;;5055709;28;20045;-51
2021/12/19 07:23:18;;;;;;;16.13;3.25;;;6.80;99.90;;;;;;5061657;28;20102;-48
2021/12/19 07:25:44;;;;;;;15.32;3.22;;;6.80;99.90;;;;;;5049983;28;20045;-50
2021/12/19 07:28:11;;;;;;;10.15;3.10;;;6.80;99.90;;;;;;5060908;28;20049;-47
2021/12/19 07:30:38;;;;;;;19.85;3.60;;;6.80;99.90;;;;;;5063680;28;20041;-48
2021/12/19 07:33:05;;;;;;;19.35;3.90;;;6.80;99.90;;;;;;5070026;28;20056;-48
2021/12/19 07:35:34;;;;;;;10.90;2.50;;;6.90;99.90;;;;;;5070093;28;20131;-47
2021/12/19 07:38:02;;;;;;;13.70;2.83;;;6.90;99.90;;;;;;5071951;28;20056;-47
2021/12/19 07:40:35;;;;;;;13.18;2.45;;;6.90;99.90;;;;;;5069410;28;20036;-47
2021/12/19 07:43:05;;;;;;;19.40;2.30;;;7.00;99.90;;;;;;5069720;28;20049;-47
2021/12/19 07:45:31;;;;;;;14.88;3.13;;;7.00;99.90;;;;;;5092987;28;20041;-46
2021/12/19 07:47:59;;;;;;;12.65;2.70;;;6.90;99.90;;;;;;5048130;28;20085;-46
2021/12/19 07:50:26;;;;;;;16.30;2.50;;;7.00;99.90;;;;;;5040600;28;20292;-47
2021/12/19 07:52:53;;;;;;;10.15;2.25;;;7.00;99.90;;;;;;5069473;28;20051;-47
2021/12/19 07:55:19;;;;;;;14.38;2.83;;;7.00;99.90;;;;;;5068895;28;20048;-46
2021/12/19 07:57:45;;;;;;;12.35;2.50;;;7.00;99.90;;;;;;5060882;28;20147;-49
2021/12/19 08:00:14;;;;;;;15.60;2.60;;;6.90;99.90;;;;;;5043861;28;20041;-48
2021/12/19 08:02:45;;;;;;;18.63;3.08;;;6.90;99.90;;;;;;5067589;28;20561;-51
2021/12/19 08:05:12;;;;;;;16.35;3.00;;;6.90;99.90;;;;;;5064493;28;20051;-47
2021/12/19 08:07:43;;;;;;;16.48;3.28;;;6.90;99.90;;;;;;5069339;28;20430;-48
2021/12/19 08:12:36;;;;;;;18.48;3.92;;;6.90;99.90;;;;;;5063853;28;20464;-47
2021/12/19 08:15:04;;;;;;;13.00;2.60;;;6.90;99.90;;;;;;5066224;28;20120;-46
2021/12/19 08:17:31;;;;;;;17.95;3.40;;;6.90;99.90;;;;;;5064976;28;20070;-47
2021/12/19 08:19:58;;;;;;;10.57;2.60;;;6.90;99.90;;;;;;5077561;28;20102;-47
2021/12/19 08:22:26;;;;;;;14.80;2.63;;;7.00;99.90;;;;;;5067610;28;20303;-48
2021/12/19 08:24:52;;;;;;;10.80;2.25;;;7.00;99.90;;;;;;5062795;28;20150;-47
2021/12/19 08:27:18;;;;;;;10.88;2.50;;;7.00;99.90;;;;;;5068494;28;20103;-46
2021/12/19 08:29:44;;;;;;;12.85;2.63;;;7.00;99.90;;;;;;5069629;28;20032;-47
2021/12/19 08:32:10;;;;;;;11.65;2.80;;;7.00;99.90;;;;;;5064669;28;20028;-47
2021/12/19 08:34:36;;;;;;;13.90;2.72;;;7.00;99.90;;;;;;5050959;28;20508;-50
2021/12/19 08:37:03;;;;;;;13.02;3.20;;;7.00;99.90;;;;;;5066922;28;20527;-47
2021/12/19 08:39:31;;;;;;;8.68;2.38;;;7.00;99.90;;;;;;5077113;28;20117;-49
2021/12/19 08:41:58;;;;;;;15.80;2.72;;;7.00;99.90;;;;;;5049441;28;20554;-46
2021/12/19 08:44:24;;;;;;;13.65;2.95;;;7.00;99.90;;;;;;5066889;28;20040;-47
2021/12/19 08:46:50;;;;;;;13.45;2.53;;;7.00;99.90;;;;;;5067532;28;20123;-47
2021/12/19 08:49:16;;;;;;;18.85;2.72;;;7.00;99.90;;;;;;5067838;28;20466;-48
2021/12/19 08:51:42;;;;;;;18.52;3.47;;;7.00;99.90;;;;;;5067293;28;20075;-48
2021/12/19 08:54:08;;;;;;;15.70;2.75;;;7.00;99.90;;;;;;5070275;28;20040;-47
2021/12/19 08:56:35;;;;;;;15.02;2.72;;;7.10;99.90;;;;;;5064054;28;20462;-48
2021/12/19 08:59:02;;;;;;;10.45;2.70;;;7.10;99.90;;;;;;5073851;28;20048;-48
2021/12/19 09:01:28;;;;;;;;;;;7.00;99.90;;;;;;5066556;28;20040;-47
2021/12/19 09:03:54;;;;;;;11.02;2.60;;;7.10;99.90;;;;;;5068810;28;19920;-51
2021/12/19 09:06:20;;;;;;;13.30;2.50;;;7.10;99.90;;;;;;5063940;28;20123;-51
2021/12/19 09:08:46;;;;;;;19.80;3.03;;;7.10;99.90;;;;;;5061075;28;20402;-50
2021/12/19 09:11:12;;;;;;;19.17;3.17;;;7.10;99.90;;;;;;5058251;28;20116;-47
2021/12/19 09:13:38;;;;;;;16.05;3.03;;;7.20;99.90;;;;;;5065344;28;20048;-50
2021/12/19 09:16:04;;;;;;;19.95;2.97;;;7.10;99.90;;;;;;5062854;28;20126;-47
2021/12/19 09:18:30;;;;;;;14.02;2.40;;;7.20;99.90;;;;;;5063131;28;20040;-47
2021/12/19 09:20:56;;;;;;;16.88;2.78;;;7.20;99.90;;;;;;5089316;28;20057;-49
2021/12/19 09:23:23;;;;;;;16.08;3.30;;;7.20;99.90;;;;;;5064463;28;20513;-50
2021/12/19 09:25:49;;;;;;;11.63;2.53;;;7.20;99.90;;;;;;5065640;28;20051;-51
2021/12/19 09:28:15;;;;;;;14.48;2.40;;;7.30;99.90;;;;;;5065416;28;20475;-50
2021/12/19 09:30:43;;;;;;;12.10;1.83;;;7.30;99.90;;;;;;5058899;28;20513;-47
2021/12/19 09:33:09;;;;;;;;;;;7.30;99.90;;;;;;5067411;28;20115;-46
2021/12/19 09:35:36;;;;;;;4.75;1.92;;;7.40;99.90;;;;;;5064248;28;20542;-47
2021/12/19 09:38:03;;;;;;;11.90;2.15;;;7.40;99.90;;;;;;5066234;28;20048;-48
2021/12/19 09:40:34;;;;;;;6.63;1.90;;;7.40;99.90;;;;;;5063801;28;20123;-48
2021/12/19 09:43:31;;;;;;;14.48;2.33;;;7.50;99.90;;;;;;5039119;28;20036;-47
2021/12/19 09:46:02;;;;;;;13.27;2.17;;;7.40;99.90;;;;;;5062291;28;20048;-50
2021/12/19 09:48:28;;;;;;;12.80;2.03;;;7.40;99.90;;;;;;5057417;28;20048;-50
2021/12/19 09:50:55;;;;;;;13.25;2.38;;;7.40;99.90;;;;;;5073427;28;20046;-46
2021/12/19 09:53:21;;;;;;;11.13;2.45;;;7.30;99.90;;;;;;5062094;28;20124;-48
2021/12/19 09:55:47;;;;;;;19.77;2.60;;;7.30;99.90;;;;;;5062263;28;20029;-48
2021/12/19 09:58:13;;;;;;;12.50;2.05;;;7.30;99.90;;;;;;5061598;28;20406;-47
2021/12/19 10:00:39;;;;;;;11.43;1.85;;;7.30;99.90;;;;;;5068141;28;20096;-49
2021/12/19 10:03:05;;;;;;;10.40;2.25;;;7.30;99.90;;;;;;5063426;28;20506;-46
2021/12/19 10:05:31;;;;;;;12.93;2.60;;;7.40;99.90;;;;;;5058899;28;20033;-49
2021/12/19 10:08:01;;;;;;;15.27;2.20;;;7.40;99.90;;;;;;5055312;28;20555;-49
2021/12/19 10:10:53;;;;;;;12.40;1.88;;;7.40;99.90;;;;;;5048110;28;20059;-47
2021/12/19 10:13:31;;;;;;;17.25;2.35;;;7.40;99.90;;;;;;5054292;28;20052;-47
2021/12/19 10:15:57;;;;;;;10.23;1.98;;;7.40;99.90;;;;;;5050586;28;20084;-48
2021/12/19 10:18:23;;;;;;;13.95;2.45;;;7.40;99.90;;;;;;5048413;28;20068;-50
2021/12/19 10:20:59;;;;;;;11.50;2.63;;;7.50;99.90;;;;;;5049731;28;20596;-48
2021/12/19 10:23:36;;;;;;;8.52;1.77;;;7.50;99.90;;;;;;5048800;28;20052;-49
2021/12/19 10:26:06;;;;;;;12.88;1.88;;;7.40;99.90;;;;;;5048750;28;20036;-49
2021/12/19 10:28:34;;;;;;;15.30;1.98;;;7.50;99.90;;;;;;5051217;28;20107;-50
2021/12/19 10:31:02;;;;;;;19.30;2.42;;;7.40;99.90;;;;;;5054561;28;20037;-47
2021/12/19 10:33:31;;;;;;;12.88;2.65;;;7.40;99.90;;;;;;5062328;28;20072;-47
2021/12/19 10:36:01;;;;;;;11.93;2.28;;;7.40;99.90;;;;;;5059218;28;20051;-47
2021/12/19 10:38:33;;;;;;;10.52;2.53;;;7.40;99.90;;;;;;5059019;28;20505;-47
2021/12/19 10:41:09;;;;;;;11.38;1.83;;;7.40;99.90;;;;;;5070264;28;20130;-47
2021/12/19 10:43:45;;;;;;;13.77;2.15;;;7.40;99.90;;;;;;5061233;28;20391;-50
2021/12/19 10:46:11;;;;;;;10.43;1.95;;;7.40;99.90;;;;;;5056223;28;20052;-47
2021/12/19 10:48:42;;;;;;;13.32;2.45;;;7.50;99.90;;;;;;5059735;28;20550;-47
2021/12/19 10:51:17;;;;;;;12.32;2.42;;;7.50;99.90;;;;;;5066118;28;20067;-49
2021/12/19 10:53:49;;;;;;;14.30;2.22;;;7.50;99.90;;;;;;5062693;28;20086;-46
2021/12/19 10:56:18;;;;;;;12.98;2.80;;;7.50;99.90;;;;;;5088284;28;20041;-47
2021/12/19 10:58:52;;;;;;;15.90;2.17;;;7.60;99.90;;;;;;5064416;28;20076;-49
2021/12/19 11:01:18;;;;;;;13.48;2.80;;;7.50;99.90;;;;;;5062386;28;20048;-47
2021/12/19 11:03:57;;;;;;;17.58;2.88;;;7.50;99.90;;;;;;5064482;28;20127;-48
2021/12/19 11:06:41;;;;;;;14.00;2.83;;;7.50;99.90;;;;;;5094245;28;20066;-50
2021/12/19 11:09:13;;;;;;;15.82;2.42;;;7.60;99.90;;;;;;5092858;28;20502;-47
2021/12/19 11:11:49;;;;;;;14.20;2.30;;;7.60;99.90;;;;;;5092150;28;20076;-49
2021/12/19 11:14:25;;;;;;;12.75;2.10;;;7.60;99.90;;;;;;5069919;28;20487;-47
2021/12/19 11:16:54;;;;;;;17.70;2.63;;;7.60;99.90;;;;;;5067803;28;20186;-51
2021/12/19 11:19:21;;;;;;;11.98;2.22;;;7.60;99.90;;;;;;5068368;28;20040;-48
2021/12/19 11:21:49;;;;;;;18.77;3.35;;;7.60;99.90;;;;;;5051695;28;20854;-47
2021/12/19 11:24:18;;;;;;;15.65;2.72;;;7.70;99.90;;;;;;5069329;28;20040;-48
2021/12/19 11:26:47;;;;;;;13.82;2.47;;;7.60;99.90;;;;;;5069262;28;20382;-49
2021/12/19 11:29:15;;;;;;;15.55;2.83;;;7.60;99.90;;;;;;5051201;28;20348;-50
2021/12/19 11:31:45;;;;;;;16.02;3.30;;;7.60;99.90;;;;;;5066819;28;20028;-52
2021/12/19 11:34:16;;;;;;;15.18;2.83;;;7.70;99.90;;;;;;5060956;28;20117;-48
2021/12/19 11:36:51;;;;;;;19.50;2.63;;;7.60;99.90;;;;;;5063229;28;20049;-48
2021/12/19 11:39:18;;;;;;;12.52;2.63;;;7.70;99.90;;;;;;5067650;28;20048;-47
2021/12/19 11:42:04;;;;;;;15.90;2.60;;;7.70;99.90;;;;;;5067728;28;20044;-48
2021/12/19 11:44:33;;;;;;;19.60;3.05;;;7.70;99.90;;;;;;5069705;28;20067;-48
2021/12/19 11:47:05;;;;;;;23.25;3.10;;;7.70;99.90;;;;;;5063314;28;20120;-48
2021/12/19 11:49:31;;;;;;;13.90;2.53;;;7.70;99.90;;;;;;5052585;28;20078;-48
2021/12/19 11:52:24;;;;;;;19.08;3.22;;;7.80;99.90;;;;;;5068594;28;20438;-49
2021/12/19 11:55:22;;;;;;;19.33;3.00;;;7.80;99.90;;;;;;5068395;28;20524;-50
2021/12/19 11:58:27;;;;;;;14.63;2.33;;;7.90;99.90;;;;;;5068678;28;20090;-48
2021/12/19 12:00:59;;;;;;;12.98;2.70;;;7.90;99.90;;;;;;5014085;28;20485;-51
2021/12/19 12:03:31;;;;;;;12.15;2.40;;;7.90;99.90;;;;;;4991590;28;20094;-49
2021/12/19 12:06:05;;;;;;;10.57;2.20;;;8.00;99.90;;;;;;5025125;28;20041;-48
2021/12/19 12:08:31;;;;;;;14.15;2.45;;;8.00;99.90;;;;;;5039420;28;20403;-46
2021/12/19 12:10:59;;;;;;;15.65;2.50;;;8.00;99.90;;;;;;5046038;28;20462;-46
2021/12/19 12:13:29;;;;;;;16.27;2.42;;;8.00;99.90;;;;;;5069828;28;20048;-49
2021/12/19 12:16:29;;;;;;;16.88;2.67;;;8.00;99.90;;;;;;5086098;28;20128;-49
2021/12/19 12:18:58;;;;;;;13.50;2.22;;;8.00;99.90;;;;;;5064197;28;20082;-50
2021/12/19 12:21:31;;;;;;;14.05;1.92;;;8.00;99.90;;;;;;5068156;28;20077;-46
2021/12/19 12:24:02;;;;;;;16.27;2.33;;;8.00;99.90;;;;;;5064869;28;20087;-47
2021/12/19 12:26:42;;;;;;;14.43;1.98;;;8.00;99.90;;;;;;5069364;28;20045;-50
2021/12/19 12:29:09;;;;;;;13.13;1.70;;;8.00;99.90;;;;;;5068239;28;20478;-47
2021/12/19 12:31:36;;;;;;;6.65;0.93;;;8.00;99.90;;;;;;5068295;28;20494;-48
2021/12/19 12:34:06;;;;;;;12.25;2.95;;;8.00;99.90;;;;;;5048094;28;20584;-47
2021/12/19 12:36:32;;;;;;;12.00;1.95;;;8.00;99.90;;;;;;5067360;28;20056;-46
2021/12/19 12:38:58;;;;;;;12.55;1.80;;;8.00;99.90;;;;;;5069527;28;20118;-49
2021/12/19 12:42:01;;;;;;;11.80;1.98;;;8.00;99.90;;;;;;5067770;28;20036;-48
2021/12/19 12:44:22;;;;;;;11.15;2.17;;;7.90;99.90;;;;;;5064219;28;20374;-48
2021/12/19 12:46:49;;;;;;;20.67;2.42;;;7.90;99.90;;;;;;5068767;28;20028;-47
2021/12/19 12:49:16;;;;;;;11.77;1.65;;;8.00;99.90;;;;;;5068801;28;20494;-50
2021/12/19 12:51:56;;;;;;;10.45;1.85;;;8.00;99.90;;;;;;5067439;28;20083;-48
2021/12/19 12:54:29;;;;;;;13.90;2.30;;;8.00;99.90;;;;;;5065853;28;20541;-46
2021/12/19 12:56:58;;;;;;;13.02;2.22;;;7.90;99.90;;;;;;5068181;28;20098;-47
2021/12/19 12:59:43;;;;;;;18.73;2.05;;;8.00;99.90;;;;;;5069117;28;20051;-50
2021/12/19 13:02:19;;;;;;;13.18;2.72;;;8.00;99.90;;;;;;5069300;28;20043;-47
2021/12/19 13:04:47;;;;;;;13.43;1.60;;;7.90;99.90;;;;;;5068496;28;20040;-48
2021/12/19 13:07:22;;;;;;;18.60;1.63;;;8.00;99.90;;;;;;5067766;28;20132;-49
2021/12/19 13:09:57;;;;;;;16.30;1.95;;;8.00;99.90;;;;;;5051470;28;20049;-48
2021/12/19 13:12:32;;;;;;;18.27;2.30;;;8.00;99.90;;;;;;5068503;28;20207;-47
2021/12/19 13:15:00;;;;;;;13.40;1.83;;;8.00;99.90;;;;;;5074683;28;20044;-47
2021/12/19 13:18:16;;;;;;;13.00;2.13;;;7.90;99.90;;;;;;5069161;28;20044;-48
2021/12/19 13:20:42;;;;;;;13.48;2.88;;;7.90;99.90;;;;;;5068852;28;20055;-48
2021/12/19 13:23:08;;;;;;;9.02;1.55;;;7.80;99.90;;;;;;5066520;28;20044;-47
2021/12/19 13:25:41;;;;;;;17.13;3.35;;;7.80;99.90;;;;;;5069917;28;20044;-49
2021/12/19 13:28:12;;;;;;;12.55;2.53;;;7.90;99.90;;;;;;5035116;28;20037;-50
2021/12/19 13:30:41;;;;;;;21.67;3.40;;;7.90;99.90;;;;;;5067472;28;20032;-48
2021/12/19 13:33:16;;;;;;;15.27;2.80;;;7.90;99.90;;;;;;5066257;28;20052;-47
2021/12/19 13:35:46;;;;;;;19.05;3.22;;;7.90;99.90;;;;;;5055530;28;20056;-48
2021/12/19 13:38:15;;;;;;;8.52;2.25;;;7.90;99.90;;;;;;5069980;28;20135;-51
2021/12/19 13:40:56;;;;;;;14.10;2.35;;;7.90;99.90;;;;;;5058882;28;20395;-48
2021/12/19 13:43:33;;;;;;;10.63;2.00;;;7.90;99.90;;;;;;5061709;28;20049;-48
2021/12/19 13:46:10;;;;;;;10.88;1.73;;;8.00;99.90;;;;;;5064656;28;20076;-49
2021/12/19 13:48:42;;;;;;;15.75;2.17;;;8.00;99.90;;;;;;5065494;28;20098;-47
2021/12/19 13:51:21;;;;;;;13.35;2.15;;;8.00;99.90;;;;;;5057463;28;20063;-48
2021/12/19 13:53:56;;;;;;;9.30;1.48;;;8.00;99.90;;;;;;5063955;28;20436;-49
2021/12/19 13:56:30;;;;;;;9.20;1.52;;;7.90;99.90;;;;;;5064455;28;20150;-47
2021/12/19 13:58:59;;;;;;;11.43;1.92;;;8.00;99.90;;;;;;5056321;28;20471;-48
2021/12/19 14:01:34;;;;;;;13.38;1.55;;;8.00;99.90;;;;;;5038426;28;20049;-50
2021/12/19 14:04:02;;;;;;;8.60;2.05;;;8.00;99.90;;;;;;5055002;28;20079;-50
2021/12/19 14:06:36;;;;;;;13.02;1.75;;;8.10;99.90;;;;;;5067736;28;20158;-47
2021/12/19 14:09:05;;;;;;;7.28;1.48;;;8.00;99.90;;;;;;5058084;28;20051;-47